createdAt,value
2022-11-25T00:00:46.914Z,6.38
2022-11-25T00:02:48.531Z,4.25
2022-11-25T00:04:50.168Z,5.03
2022-11-25T00:06:51.856Z,4.07
2022-11-25T00:09:00.786Z,5.65
2022-11-25T00:11:02.713Z,7.47
2022-11-25T00:13:04.325Z,7.63
2022-11-25T00:15:06.040Z,4.55
2022-11-25T00:17:07.598Z,7.65
2022-11-25T00:19:10.040Z,9.23
2022-11-25T00:21:13.316Z,7.07
2022-11-25T00:23:14.778Z,8.50
2022-11-25T00:25:16.578Z,5.07
2022-11-25T00:27:18.415Z,10.90
2022-11-25T00:29:20.150Z,10.88
2022-11-25T00:31:23.342Z,9.10
2022-11-25T00:33:24.886Z,9.40
2022-11-25T00:35:26.338Z,13.88
2022-11-25T00:37:27.779Z,9.18
2022-11-25T00:39:29.533Z,10.75
2022-11-25T00:41:49.502Z,12.88
2022-11-25T00:44:09.686Z,10.07
2022-11-25T00:46:11.639Z,10.90
2022-11-25T00:48:13.204Z,10.20
2022-11-25T00:50:14.694Z,7.68
2022-11-25T00:52:17.263Z,7.55
2022-11-25T00:54:18.990Z,4.90
2022-11-25T00:56:22.977Z,7.13
2022-11-25T00:58:24.421Z,11.82
2022-11-25T01:00:25.865Z,10.73
2022-11-25T01:02:27.500Z,8.13
2022-11-25T01:04:29.066Z,4.05
2022-11-25T01:06:36.915Z,6.50
2022-11-25T01:08:53.270Z,6.32
2022-11-25T01:11:22.979Z,12.13
2022-11-25T01:13:53.573Z,7.03
2022-11-25T01:16:12.356Z,6.68
2022-11-25T01:18:33.905Z,4.00
2022-11-25T01:21:08.293Z,12.93
2022-11-25T01:23:28.038Z,9.00
2022-11-25T01:25:56.062Z,11.20
2022-11-25T01:28:18.188Z,13.65
2022-11-25T01:30:41.255Z,12.38
2022-11-25T01:32:56.939Z,14.02
2022-11-25T01:35:16.415Z,18.85
2022-11-25T01:37:45.271Z,7.88
2022-11-25T01:40:06.092Z,7.97
2022-11-25T01:42:07.981Z,11.30
2022-11-25T01:44:16.876Z,7.75
2022-11-25T01:46:27.925Z,5.50
2022-11-25T01:48:33.133Z,5.60
2022-11-25T01:50:35.382Z,7.45
2022-11-25T01:52:40.948Z,8.90
2022-11-25T01:54:54.324Z,12.77
2022-11-25T01:56:59.393Z,7.35
2022-11-25T01:59:01.129Z,6.88
2022-11-25T02:01:02.760Z,5.43
2022-11-25T02:03:04.365Z,6.35
2022-11-25T02:05:10.438Z,12.30
2022-11-25T02:07:25.289Z,10.95
2022-11-25T02:09:27.545Z,4.63
2022-11-25T02:11:30.750Z,5.60
2022-11-25T02:13:32.734Z,3.15
2022-11-25T02:15:35.269Z,4.50
2022-11-25T02:17:36.894Z,1.20
2022-11-25T02:19:43.313Z,3.22
2022-11-25T02:21:47.016Z,2.95
2022-11-25T02:23:48.505Z,2.97
2022-11-25T02:25:50.054Z,3.05
2022-11-25T02:27:54.150Z,1.70
2022-11-25T02:29:55.674Z,2.58
2022-11-25T02:31:57.497Z,2.97
2022-11-25T02:33:59.044Z,3.15
2022-11-25T02:36:02.832Z,3.03
2022-11-25T02:38:24.589Z,2.88
2022-11-25T02:40:26.456Z,1.23
2022-11-25T02:42:28.961Z,1.45
2022-11-25T02:44:30.529Z,2.60
2022-11-25T02:46:32.228Z,2.40
2022-11-25T02:49:06.897Z,3.90
2022-11-25T02:50:56.532Z,7.00
2022-11-25T02:52:58.165Z,7.18
2022-11-25T02:54:59.901Z,5.35
2022-11-25T02:57:01.408Z,4.43
2022-11-25T02:59:03.856Z,6.55
2022-11-25T03:01:05.433Z,3.45
2022-11-25T03:03:07.216Z,3.03
2022-11-25T03:05:08.730Z,3.03
2022-11-25T03:07:10.323Z,3.58
2022-11-25T03:09:11.849Z,3.13
2022-11-25T03:11:13.477Z,4.63
2022-11-25T03:13:15.286Z,3.53
2022-11-25T03:15:17.569Z,5.85
2022-11-25T03:17:19.198Z,6.70
2022-11-25T03:19:20.693Z,8.23
2022-11-25T03:21:22.154Z,6.28
2022-11-25T03:23:23.941Z,3.50
2022-11-25T03:25:25.899Z,6.22
2022-11-25T03:27:30.261Z,3.90
2022-11-25T03:29:32.029Z,5.97
2022-11-25T03:31:34.044Z,5.20
2022-11-25T03:33:35.678Z,5.20
2022-11-25T03:35:37.169Z,8.20
2022-11-25T03:37:39.359Z,3.33
2022-11-25T03:39:40.799Z,1.90
2022-11-25T03:41:42.441Z,1.73
2022-11-25T03:43:44.061Z,4.40
2022-11-25T03:45:48.538Z,3.13
2022-11-25T03:47:50.073Z,4.47
2022-11-25T03:49:51.631Z,2.65
2022-11-25T03:51:53.460Z,2.33
2022-11-25T03:53:54.947Z,3.78
2022-11-25T03:55:56.766Z,0.80
2022-11-25T03:57:58.233Z,1.67
2022-11-25T03:59:59.720Z,1.92
2022-11-25T04:02:01.432Z,2.20
2022-11-25T04:04:03.031Z,2.92
2022-11-25T04:06:04.801Z,3.88
2022-11-25T04:08:06.590Z,2.33
2022-11-25T04:10:08.515Z,2.42
2022-11-25T04:12:37.855Z,3.75
2022-11-25T04:15:00.361Z,2.85
2022-11-25T04:17:32.403Z,5.03
2022-11-25T04:22:29.758Z,3.47
2022-11-25T04:24:48.289Z,1.95
2022-11-25T04:27:10.789Z,3.03
2022-11-25T04:29:36.966Z,1.80
2022-11-25T04:31:54.729Z,4.75
2022-11-25T04:34:16.970Z,5.40
2022-11-25T04:36:37.449Z,2.95
2022-11-25T04:39:05.129Z,1.95
2022-11-25T04:41:24.370Z,3.85
2022-11-25T04:43:51.900Z,5.68
2022-11-25T04:46:13.447Z,6.07
2022-11-25T04:48:15.604Z,3.15
2022-11-25T04:50:18.777Z,1.67
2022-11-25T04:52:20.241Z,3.45
2022-11-25T04:54:21.788Z,2.92
2022-11-25T04:56:23.243Z,3.92
2022-11-25T04:58:43.477Z,4.50
2022-11-25T05:00:44.938Z,2.15
2022-11-25T05:02:46.735Z,1.90
2022-11-25T05:04:49.312Z,1.08
2022-11-25T05:06:51.778Z,1.38
2022-11-25T05:08:53.255Z,3.60
2022-11-25T05:10:54.724Z,1.80
2022-11-25T05:12:56.152Z,5.88
2022-11-25T05:14:57.813Z,3.42
2022-11-25T05:16:59.656Z,1.00
2022-11-25T05:19:01.179Z,1.13
2022-11-25T05:21:04.178Z,1.27
2022-11-25T05:23:05.666Z,3.22
2022-11-25T05:25:07.510Z,1.30
2022-11-25T05:27:09.797Z,1.40
2022-11-25T05:29:11.309Z,3.17
2022-11-25T05:31:12.980Z,2.22
2022-11-25T05:33:14.733Z,1.92
2022-11-25T05:35:16.386Z,1.70
2022-11-25T05:37:22.864Z,0.90
2022-11-25T05:39:25.932Z,2.53
2022-11-25T05:41:27.492Z,0.98
2022-11-25T05:43:29.114Z,0.38
2022-11-25T05:45:30.606Z,1.15
2022-11-25T05:47:32.091Z,0.43
2022-11-25T05:49:33.820Z,0.93
2022-11-25T05:51:35.300Z,0.38
2022-11-25T05:53:37.021Z,2.20
2022-11-25T05:55:38.458Z,2.50
2022-11-25T05:57:39.977Z,0.45
2022-11-25T05:59:41.569Z,1.60
2022-11-25T06:01:43.050Z,1.23
2022-11-25T06:03:44.619Z,1.92
2022-11-25T06:05:46.124Z,1.45
2022-11-25T06:07:47.825Z,2.47
2022-11-25T06:09:50.429Z,0.95
2022-11-25T06:11:51.930Z,1.73
2022-11-25T06:13:53.437Z,2.40
2022-11-25T06:15:55.064Z,3.80
2022-11-25T06:17:56.672Z,1.05
2022-11-25T06:19:58.276Z,0.30
2022-11-25T06:21:59.739Z,0.20
2022-11-25T06:24:01.526Z,0.20
2022-11-25T06:26:07.087Z,0.10
2022-11-25T06:28:13.139Z,0.40
2022-11-25T06:30:15.425Z,1.85
2022-11-25T06:32:16.919Z,0.10
2022-11-25T06:34:19.384Z,0.10
2022-11-25T06:36:21.704Z,0.20
2022-11-25T06:38:23.202Z,0.73
2022-11-25T06:40:25.058Z,0.52
2022-11-25T06:42:27.257Z,0.10
2022-11-25T06:44:28.761Z,0.32
2022-11-25T06:46:31.360Z,1.42
2022-11-25T06:48:33.691Z,0.80
2022-11-25T06:50:35.150Z,0.30
2022-11-25T06:52:36.980Z,0.20
2022-11-25T06:54:41.408Z,0.73
2022-11-25T06:56:43.372Z,0.38
2022-11-25T06:58:45.662Z,0.10
2022-11-25T07:00:47.191Z,0.95
2022-11-25T07:02:49.132Z,0.20
2022-11-25T07:04:50.632Z,0.10
2022-11-25T07:06:52.868Z,0.17
2022-11-25T07:08:54.549Z,0.20
2022-11-25T07:10:56.596Z,0.20
2022-11-25T07:12:59.740Z,0.10
2022-11-25T07:15:03.355Z,0.00
2022-11-25T07:17:11.721Z,0.08
2022-11-25T07:19:30.344Z,0.13
2022-11-25T07:21:51.182Z,0.22
2022-11-25T07:24:09.725Z,0.10
2022-11-25T07:26:28.406Z,0.10
2022-11-25T07:28:47.928Z,0.77
2022-11-25T07:31:23.243Z,0.20
2022-11-25T07:33:42.052Z,0.40
2022-11-25T07:36:01.822Z,0.10
2022-11-25T07:38:14.384Z,0.20
2022-11-25T07:40:32.978Z,0.10
2022-11-25T07:42:46.377Z,0.10
2022-11-25T07:45:06.517Z,0.10
2022-11-25T07:47:24.346Z,0.15
2022-11-25T07:49:45.192Z,0.10
2022-11-25T07:52:04.296Z,0.10
2022-11-25T07:54:25.100Z,0.20
2022-11-25T07:56:29.667Z,0.38
2022-11-25T07:58:31.382Z,0.20
2022-11-25T08:00:33.095Z,0.25
2022-11-25T08:02:34.807Z,0.47
2022-11-25T08:04:36.957Z,0.10
2022-11-25T08:06:40.034Z,0.43
2022-11-25T08:08:42.818Z,0.52
2022-11-25T08:10:44.461Z,0.35
2022-11-25T08:12:46.041Z,1.17
2022-11-25T08:14:47.761Z,0.75
2022-11-25T08:16:49.515Z,1.15
2022-11-25T08:18:50.998Z,0.15
2022-11-25T08:20:52.980Z,0.20
2022-11-25T08:22:54.593Z,0.55
2022-11-25T08:24:56.793Z,0.88
2022-11-25T08:27:01.513Z,1.13
2022-11-25T08:29:04.253Z,0.85
2022-11-25T08:31:07.418Z,0.43
2022-11-25T08:33:09.330Z,0.10
2022-11-25T08:35:11.213Z,0.75
2022-11-25T08:37:12.793Z,0.20
2022-11-25T08:39:36.416Z,0.50
2022-11-25T08:41:37.460Z,0.13
2022-11-25T08:43:39.455Z,1.10
2022-11-25T08:45:41.424Z,0.65
2022-11-25T08:47:43.145Z,1.23
2022-11-25T08:49:45.391Z,0.10
2022-11-25T08:51:47.118Z,0.52
2022-11-25T08:53:51.217Z,0.45
2022-11-25T08:55:53.116Z,1.15
2022-11-25T08:57:54.990Z,1.33
2022-11-25T08:59:56.606Z,0.35
2022-11-25T09:01:58.419Z,0.55
2022-11-25T09:04:00.021Z,2.05
2022-11-25T09:06:02.195Z,1.17
2022-11-25T09:08:04.049Z,2.65
2022-11-25T09:10:06.721Z,1.27
2022-11-25T09:12:08.473Z,2.55
2022-11-25T09:14:10.408Z,1.58
2022-11-25T09:16:12.517Z,1.75
2022-11-25T09:18:15.706Z,3.72
2022-11-25T09:20:17.355Z,1.75
2022-11-25T09:22:18.829Z,2.58
2022-11-25T09:24:20.673Z,2.67
2022-11-25T09:26:26.702Z,4.72
2022-11-25T09:28:28.248Z,4.80
2022-11-25T09:30:29.852Z,3.45
2022-11-25T09:32:31.704Z,2.88
2022-11-25T09:34:33.714Z,7.32
2022-11-25T09:36:35.621Z,3.80
2022-11-25T09:38:41.686Z,1.30
2022-11-25T09:40:51.243Z,3.80
2022-11-25T09:43:18.253Z,2.75
2022-11-25T09:45:43.744Z,1.65
2022-11-25T09:48:21.453Z,1.85
2022-11-25T09:50:28.774Z,2.00
2022-11-25T09:52:49.022Z,2.10
2022-11-25T09:54:58.210Z,1.80
2022-11-25T09:57:18.342Z,2.80
2022-11-25T09:59:22.295Z,5.07
2022-11-25T10:01:25.820Z,3.92
2022-11-25T10:03:27.477Z,4.03
2022-11-25T10:05:32.561Z,2.97
2022-11-25T10:07:39.856Z,6.38
2022-11-25T10:09:41.326Z,2.65
2022-11-25T10:11:57.141Z,4.32
2022-11-25T10:14:22.161Z,2.47
2022-11-25T10:16:38.798Z,2.40
2022-11-25T10:18:43.649Z,2.03
2022-11-25T10:20:49.066Z,3.15
2022-11-25T10:22:59.833Z,3.33
2022-11-25T10:25:42.708Z,2.83
2022-11-25T10:28:02.449Z,4.07
2022-11-25T10:30:24.503Z,2.92
2022-11-25T10:32:35.128Z,3.03
2022-11-25T10:34:54.834Z,2.53
2022-11-25T10:37:09.461Z,0.98
2022-11-25T10:39:16.736Z,2.25
2022-11-25T10:41:24.848Z,1.55
2022-11-25T10:43:35.336Z,4.00
2022-11-25T10:45:43.864Z,4.65
2022-11-25T10:48:05.532Z,1.95
2022-11-25T10:50:20.903Z,4.05
2022-11-25T10:52:46.355Z,3.67
2022-11-25T10:55:24.928Z,4.30
2022-11-25T10:57:32.423Z,2.63
2022-11-25T10:59:41.278Z,3.35
2022-11-25T11:01:47.337Z,2.33
2022-11-25T11:03:54.796Z,5.78
2022-11-25T11:05:57.053Z,1.88
2022-11-25T11:08:22.050Z,2.38
2022-11-25T11:10:26.577Z,3.92
2022-11-25T11:12:29.397Z,6.63
2022-11-25T11:14:30.959Z,5.18
2022-11-25T11:16:40.678Z,3.35
2022-11-25T11:18:42.284Z,4.38
2022-11-25T11:20:48.032Z,2.72
2022-11-25T11:22:55.714Z,2.72
2022-11-25T11:25:07.683Z,3.58
2022-11-25T11:27:23.534Z,3.95
2022-11-25T11:29:25.153Z,1.23
2022-11-25T11:31:35.437Z,6.43
2022-11-25T11:33:39.750Z,2.55
2022-11-25T11:35:47.125Z,2.10
2022-11-25T11:37:52.897Z,5.68
2022-11-25T11:40:14.044Z,4.10
2022-11-25T11:42:21.914Z,4.47
2022-11-25T11:44:34.518Z,2.55
2022-11-25T11:46:43.706Z,3.15
2022-11-25T11:48:49.939Z,4.50
2022-11-25T11:51:03.852Z,3.53
2022-11-25T11:53:18.716Z,8.02
2022-11-25T11:55:26.828Z,5.47
2022-11-25T11:57:46.813Z,4.53
2022-11-25T11:59:49.561Z,3.40
2022-11-25T12:02:06.644Z,2.70
2022-11-25T12:04:20.206Z,2.33
2022-11-25T12:06:22.691Z,5.72
2022-11-25T12:08:34.278Z,4.32
2022-11-25T12:10:40.654Z,3.25
2022-11-25T12:12:45.448Z,4.22
2022-11-25T12:14:49.758Z,4.80
2022-11-25T12:16:56.028Z,1.88
2022-11-25T12:19:03.470Z,4.78
2022-11-25T12:21:07.612Z,3.85
2022-11-25T12:23:28.138Z,4.50
2022-11-25T12:25:35.837Z,2.67
2022-11-25T12:27:39.998Z,3.38
2022-11-25T12:31:46.734Z,4.32
2022-11-25T12:34:06.977Z,5.50
2022-11-25T12:36:11.955Z,1.63
2022-11-25T12:38:32.289Z,5.45
2022-11-25T12:40:47.448Z,4.32
2022-11-25T12:42:49.502Z,5.65
2022-11-25T12:45:00.755Z,5.22
2022-11-25T12:47:02.241Z,3.30
2022-11-25T12:49:05.592Z,2.92
2022-11-25T12:51:18.487Z,5.40
2022-11-25T12:53:37.521Z,4.82
2022-11-25T12:55:40.694Z,3.30
2022-11-25T12:58:00.156Z,4.87
2022-11-25T13:02:39.519Z,5.43
2022-11-25T13:04:53.888Z,6.10
2022-11-25T13:06:58.177Z,6.10
2022-11-25T13:09:07.866Z,5.10
2022-11-25T13:11:18.420Z,6.70
2022-11-25T13:13:29.656Z,4.55
2022-11-25T13:15:39.053Z,5.70
2022-11-25T13:17:41.569Z,7.22
2022-11-25T13:19:43.231Z,5.28
2022-11-25T13:21:57.703Z,3.10
2022-11-25T13:26:25.325Z,9.40
2022-11-25T13:28:35.489Z,5.00
2022-11-25T13:30:43.372Z,5.88
2022-11-25T13:32:52.320Z,5.65
2022-11-25T13:35:20.314Z,2.92
2022-11-25T13:37:44.782Z,4.13
2022-11-25T13:40:18.874Z,7.13
2022-11-25T13:42:34.591Z,5.40
2022-11-25T13:45:15.924Z,4.80
2022-11-25T13:47:36.096Z,5.32
2022-11-25T13:49:54.741Z,2.22
2022-11-25T13:52:24.423Z,4.85
2022-11-25T13:54:49.447Z,4.15
2022-11-25T13:57:16.729Z,2.92
2022-11-25T13:59:21.380Z,5.18
2022-11-25T14:01:34.439Z,3.25
2022-11-25T14:04:03.834Z,2.45
2022-11-25T14:06:23.943Z,2.50
2022-11-25T14:09:00.211Z,3.25
2022-11-25T14:11:10.819Z,5.63
2022-11-25T14:13:30.845Z,4.20
2022-11-25T14:15:54.528Z,1.27
2022-11-25T14:18:05.123Z,4.93
2022-11-25T14:20:14.699Z,3.75
2022-11-25T14:22:31.226Z,3.58
2022-11-25T14:24:35.478Z,3.50
2022-11-25T14:26:55.907Z,3.83
2022-11-25T14:29:15.602Z,3.40
2022-11-25T14:31:20.338Z,2.05
2022-11-25T14:33:29.128Z,3.58
2022-11-25T14:35:45.020Z,4.13
2022-11-25T14:37:51.848Z,2.80
2022-11-25T14:40:00.250Z,2.58
2022-11-25T14:42:02.159Z,2.25
2022-11-25T14:44:05.967Z,3.40
2022-11-25T14:46:20.600Z,1.40
2022-11-25T14:48:26.004Z,1.45
2022-11-25T14:50:34.654Z,1.08
2022-11-25T14:52:36.905Z,1.70
2022-11-25T14:54:42.470Z,1.23
2022-11-25T14:56:44.954Z,2.42
2022-11-25T14:58:47.654Z,1.58
2022-11-25T15:00:53.675Z,3.75
2022-11-25T15:02:57.282Z,4.13
2022-11-25T15:05:02.021Z,4.15
2022-11-25T15:07:17.414Z,2.17
2022-11-25T15:09:18.959Z,2.97
2022-11-25T15:11:23.202Z,2.45
2022-11-25T15:13:30.591Z,4.53
2022-11-25T15:15:32.217Z,4.60
2022-11-25T15:17:37.453Z,2.10
2022-11-25T15:19:39.357Z,2.20
2022-11-25T15:22:14.522Z,1.30
2022-11-25T15:24:07.436Z,1.05
2022-11-25T15:26:25.614Z,1.70
2022-11-25T15:28:27.430Z,1.80
2022-11-25T15:30:32.303Z,1.70
2022-11-25T15:32:37.810Z,0.38
2022-11-25T15:34:39.600Z,0.20
2022-11-25T15:36:41.578Z,0.40
2022-11-25T15:38:44.311Z,0.65
2022-11-25T15:40:54.767Z,0.50
2022-11-25T15:43:00.503Z,0.25
2022-11-25T15:45:10.044Z,0.32
2022-11-25T15:47:26.978Z,0.95
2022-11-25T15:49:30.068Z,0.52
2022-11-25T15:51:43.790Z,0.68
2022-11-25T15:53:47.144Z,0.38
2022-11-25T15:55:48.809Z,0.10
2022-11-25T15:57:51.441Z,0.43
2022-11-25T15:59:55.846Z,0.50
2022-11-25T16:01:57.601Z,0.30
2022-11-25T16:04:09.729Z,0.20
2022-11-25T16:06:19.417Z,0.35
2022-11-25T16:08:39.452Z,2.97
2022-11-25T16:10:41.819Z,1.50
2022-11-25T16:12:43.528Z,1.65
2022-11-25T16:14:45.803Z,0.75
2022-11-25T16:16:47.987Z,0.95
2022-11-25T16:19:02.041Z,0.57
2022-11-25T16:21:05.512Z,0.80
2022-11-25T16:23:07.969Z,0.55
2022-11-25T16:25:10.529Z,1.92
2022-11-25T16:27:15.134Z,1.20
2022-11-25T16:29:27.770Z,1.73
2022-11-25T16:34:18.032Z,2.25
2022-11-25T16:36:34.919Z,0.50
2022-11-25T16:39:00.419Z,1.60
2022-11-25T16:41:32.349Z,2.13
2022-11-25T16:43:50.686Z,1.27
2022-11-25T16:46:06.695Z,0.80
2022-11-25T16:48:29.677Z,0.95
2022-11-25T16:50:49.229Z,0.95
2022-11-25T16:53:02.147Z,1.00
2022-11-25T16:55:14.698Z,1.45
2022-11-25T16:57:20.516Z,0.73
2022-11-25T16:59:42.751Z,1.08
2022-11-25T17:02:00.767Z,2.17
2022-11-25T17:04:18.526Z,1.08
2022-11-25T17:06:29.458Z,0.30
2022-11-25T17:08:35.532Z,1.50
2022-11-25T17:10:37.409Z,2.30
2022-11-25T17:12:40.873Z,1.63
2022-11-25T17:14:43.231Z,1.45
2022-11-25T17:16:44.974Z,1.60
2022-11-25T17:18:46.784Z,1.48
2022-11-25T17:20:48.445Z,1.17
2022-11-25T17:22:51.378Z,0.93
2022-11-25T17:24:53.747Z,0.95
2022-11-25T17:27:03.049Z,2.95
2022-11-25T17:29:06.261Z,1.80
2022-11-25T17:31:09.407Z,0.95
2022-11-25T17:33:14.323Z,0.82
2022-11-25T17:35:17.661Z,1.08
2022-11-25T17:37:23.117Z,1.67
2022-11-25T17:39:24.684Z,1.92
2022-11-25T17:41:29.186Z,1.05
2022-11-25T17:43:38.754Z,0.90
2022-11-25T17:45:40.462Z,0.82
2022-11-25T17:47:43.073Z,1.35
2022-11-25T17:49:45.896Z,1.50
2022-11-25T17:51:47.944Z,1.00
2022-11-25T17:53:49.477Z,2.05
2022-11-25T17:55:53.514Z,1.45
2022-11-25T17:57:55.104Z,1.27
2022-11-25T17:59:56.660Z,2.22
2022-11-25T18:02:01.091Z,3.55
2022-11-25T18:04:32.381Z,2.13
2022-11-25T18:06:33.894Z,2.08
2022-11-25T18:08:35.763Z,1.60
2022-11-25T18:10:38.098Z,0.60
2022-11-25T18:12:39.987Z,1.38
2022-11-25T18:14:43.026Z,0.80
2022-11-25T18:16:44.662Z,2.47
2022-11-25T18:18:46.588Z,1.77
2022-11-25T18:20:48.222Z,3.25
2022-11-25T18:22:50.207Z,1.10
2022-11-25T18:24:52.771Z,0.88
2022-11-25T18:26:54.383Z,1.13
2022-11-25T18:28:56.294Z,1.58
2022-11-25T18:31:02.525Z,0.47
2022-11-25T18:33:06.493Z,0.68
2022-11-25T18:35:18.898Z,0.98
2022-11-25T18:37:20.520Z,1.17
2022-11-25T18:39:22.104Z,0.50
2022-11-25T18:41:23.592Z,1.42
2022-11-25T18:43:26.760Z,1.45
2022-11-25T18:45:30.812Z,1.23
2022-11-25T18:47:32.339Z,1.23
2022-11-25T18:49:34.215Z,1.02
2022-11-25T18:51:37.475Z,0.85
2022-11-25T18:53:38.967Z,0.52
2022-11-25T18:55:41.008Z,0.40
2022-11-25T18:57:48.042Z,0.40
2022-11-25T19:00:00.210Z,0.85
2022-11-25T19:02:17.737Z,0.50
2022-11-25T19:04:19.351Z,0.40
2022-11-25T19:06:21.587Z,0.73
2022-11-25T19:08:23.117Z,0.60
2022-11-25T19:10:25.826Z,0.35
2022-11-25T19:12:27.263Z,0.25
2022-11-25T19:14:39.702Z,0.40
2022-11-25T19:16:41.950Z,0.73
2022-11-25T19:18:44.714Z,0.40
2022-11-25T19:20:46.267Z,0.40
2022-11-25T19:22:47.912Z,1.15
2022-11-25T19:24:49.399Z,0.50
2022-11-25T19:26:52.474Z,0.55
2022-11-25T19:29:08.015Z,0.90
2022-11-25T19:31:10.458Z,0.68
2022-11-25T19:33:20.477Z,0.80
2022-11-25T19:35:27.443Z,1.15
2022-11-25T19:37:30.752Z,0.90
2022-11-25T19:39:37.303Z,3.93
2022-11-25T19:41:59.590Z,0.90
2022-11-25T19:44:14.924Z,0.70
2022-11-25T19:47:07.009Z,0.93
2022-11-25T19:49:44.336Z,1.08
2022-11-25T19:52:08.828Z,1.20
2022-11-25T19:54:28.864Z,1.20
2022-11-25T19:58:35.640Z,1.05
2022-11-25T20:00:39.110Z,0.70
2022-11-25T20:02:40.964Z,0.77
2022-11-25T20:04:44.159Z,0.82
2022-11-25T20:06:46.110Z,0.75
2022-11-25T20:08:50.041Z,0.60
2022-11-25T20:10:55.273Z,0.80
2022-11-25T20:13:01.263Z,0.50
2022-11-25T20:15:05.468Z,0.70
2022-11-25T20:17:13.346Z,0.55
2022-11-25T20:19:19.763Z,0.98
2022-11-25T20:21:38.304Z,1.17
2022-11-25T20:23:44.615Z,0.57
2022-11-25T20:25:50.383Z,0.50
2022-11-25T20:27:54.511Z,0.52
2022-11-25T20:29:58.324Z,0.60
2022-11-25T20:32:03.238Z,0.60
2022-11-25T20:34:07.817Z,0.50
2022-11-25T20:36:16.586Z,1.15
2022-11-25T20:38:25.762Z,0.60
2022-11-25T20:40:44.265Z,1.70
2022-11-25T20:42:49.817Z,1.38
2022-11-25T20:44:57.492Z,1.35
2022-11-25T20:46:59.378Z,1.52
2022-11-25T20:49:03.345Z,0.80
2022-11-25T20:51:06.577Z,1.40
2022-11-25T20:53:19.339Z,1.70
2022-11-25T20:55:23.890Z,1.55
2022-11-25T20:57:25.647Z,1.50
2022-11-25T20:59:28.646Z,1.30
2022-11-25T21:01:30.217Z,0.90
2022-11-25T21:03:31.880Z,1.00
2022-11-25T21:05:33.788Z,0.82
2022-11-25T21:07:36.406Z,1.02
2022-11-25T21:09:38.190Z,0.77
2022-11-25T21:11:40.336Z,1.95
2022-11-25T21:13:43.022Z,0.60
2022-11-25T21:15:46.422Z,0.50
2022-11-25T21:17:49.428Z,0.50
2022-11-25T21:19:51.648Z,0.65
2022-11-25T21:21:53.785Z,0.65
2022-11-25T21:23:55.711Z,0.60
2022-11-25T21:26:00.958Z,0.57
2022-11-25T21:28:03.047Z,0.82
2022-11-25T21:30:04.888Z,0.50
2022-11-25T21:32:23.467Z,1.10
2022-11-25T21:34:24.956Z,0.60
2022-11-25T21:36:30.605Z,0.90
2022-11-25T21:38:32.054Z,1.17
2022-11-25T21:40:40.988Z,0.85
2022-11-25T21:42:42.469Z,0.50
2022-11-25T21:44:44.689Z,0.50
2022-11-25T21:46:46.246Z,0.60
2022-11-25T21:48:49.361Z,0.80
2022-11-25T21:50:51.175Z,0.55
2022-11-25T21:52:52.726Z,0.60
2022-11-25T21:54:54.280Z,0.30
2022-11-25T21:56:57.887Z,0.38
2022-11-25T21:59:00.266Z,0.88
2022-11-25T22:01:01.900Z,0.30
2022-11-25T22:03:03.902Z,1.27
2022-11-25T22:05:11.625Z,0.55
2022-11-25T22:07:13.310Z,0.30
2022-11-25T22:09:15.032Z,0.80
2022-11-25T22:11:26.562Z,0.90
2022-11-25T22:13:30.757Z,1.17
2022-11-25T22:17:33.692Z,1.48
2022-11-25T22:19:35.300Z,0.50
2022-11-25T22:21:37.675Z,1.13
2022-11-25T22:23:39.247Z,0.95
2022-11-25T22:25:40.992Z,0.50
2022-11-25T22:27:42.562Z,0.40
2022-11-25T22:29:44.622Z,1.00
2022-11-25T22:31:46.910Z,0.50
2022-11-25T22:33:49.034Z,0.40
2022-11-25T22:35:50.792Z,0.40
2022-11-25T22:37:55.407Z,0.63
2022-11-25T22:39:57.240Z,0.75
2022-11-25T22:42:03.845Z,0.52
2022-11-25T22:44:05.599Z,0.50
2022-11-25T22:46:07.290Z,0.65
2022-11-25T22:48:14.566Z,0.95
2022-11-25T22:50:22.076Z,2.08
2022-11-25T22:52:26.544Z,0.68
2022-11-25T22:54:30.925Z,0.85
2022-11-25T22:56:35.326Z,1.38
2022-11-25T23:00:45.984Z,1.77
2022-11-25T23:02:51.471Z,1.52
2022-11-25T23:04:57.764Z,1.67
2022-11-25T23:07:02.420Z,1.20
2022-11-25T23:09:07.872Z,1.30
2022-11-25T23:11:22.640Z,0.80
2022-11-25T23:15:31.852Z,0.73
2022-11-25T23:17:36.316Z,1.55
2022-11-25T23:19:41.080Z,0.88
2022-11-25T23:21:46.841Z,1.30
2022-11-25T23:23:48.921Z,0.68
2022-11-25T23:25:51.069Z,1.17
2022-11-25T23:27:52.643Z,0.77
2022-11-25T23:29:54.411Z,1.02
2022-11-25T23:31:56.056Z,1.05
2022-11-25T23:33:57.874Z,0.43
2022-11-25T23:36:02.521Z,1.13
2022-11-25T23:38:07.421Z,1.50
2022-11-25T23:40:14.586Z,0.60
2022-11-25T23:42:16.857Z,1.08
2022-11-25T23:44:25.915Z,0.93
2022-11-25T23:46:31.880Z,0.52
2022-11-25T23:48:33.420Z,1.30
2022-11-25T23:50:34.891Z,0.50
2022-11-25T23:52:36.593Z,0.73
2022-11-25T23:54:42.566Z,0.50
2022-11-25T23:56:44.145Z,0.38
2022-11-25T23:58:45.938Z,1.02
